createdAt,value
2016-06-20T00:00:49.759Z,1018.79
2016-06-20T00:01:49.746Z,1018.74
2016-06-20T00:02:49.719Z,1018.77
2016-06-20T00:03:49.706Z,1018.73
2016-06-20T00:04:49.694Z,1018.78
2016-06-20T00:05:49.698Z,1018.73
2016-06-20T00:06:49.669Z,1018.7
2016-06-20T00:07:49.658Z,1018.67
2016-06-20T00:08:49.645Z,1018.67
2016-06-20T00:09:49.649Z,1018.66
2016-06-20T00:10:49.621Z,1018.64
2016-06-20T00:11:49.609Z,1018.66
2016-06-20T00:12:49.597Z,1018.64
2016-06-20T00:13:49.584Z,1018.62
2016-06-20T00:14:49.572Z,1018.6
2016-06-20T00:15:49.561Z,1018.57
2016-06-20T00:16:49.548Z,1018.54
2016-06-20T00:17:49.535Z,1018.54
2016-06-20T00:18:49.524Z,1018.55
2016-06-20T00:19:49.497Z,1018.55
2016-06-20T00:20:49.484Z,1018.52
2016-06-20T00:21:49.487Z,1018.5
2016-06-20T00:22:49.475Z,1018.53
2016-06-20T00:23:49.447Z,1018.51
2016-06-20T00:24:49.451Z,1018.54
2016-06-20T00:25:49.438Z,1018.53
2016-06-20T00:26:49.410Z,1018.47
2016-06-20T00:27:49.415Z,1018.52
2016-06-20T00:28:49.403Z,1018.5
2016-06-20T00:29:49.374Z,1018.53
2016-06-20T00:30:49.362Z,1018.51
2016-06-20T00:31:49.350Z,1018.45
2016-06-20T00:32:49.338Z,1018.5
2016-06-20T00:33:49.326Z,1018.49
2016-06-20T00:34:49.313Z,1018.47
2016-06-20T00:35:49.302Z,1018.43
2016-06-20T00:36:49.290Z,1018.43
2016-06-20T00:37:49.277Z,1018.46
2016-06-20T00:38:49.265Z,1018.42
2016-06-20T00:39:49.253Z,1018.42
2016-06-20T00:40:49.240Z,1018.44
2016-06-20T00:41:49.228Z,1018.39
2016-06-20T00:42:49.216Z,1018.49
2016-06-20T00:43:49.205Z,1018.47
2016-06-20T00:44:49.176Z,1018.47
2016-06-20T00:45:49.180Z,1018.49
2016-06-20T00:46:49.168Z,1018.45
2016-06-20T00:47:49.140Z,1018.41
2016-06-20T00:48:49.143Z,1018.42
2016-06-20T00:49:49.116Z,1018.4
2016-06-20T00:50:49.103Z,1018.38
2016-06-20T00:51:49.107Z,1018.36
2016-06-20T00:52:49.094Z,1018.38
2016-06-20T00:53:49.067Z,1018.28
2016-06-20T00:54:49.054Z,1018.32
2016-06-20T00:55:49.058Z,1018.25
2016-06-20T00:56:49.045Z,1018.28
2016-06-20T00:57:49.018Z,1018.27
2016-06-20T00:58:49.006Z,1018.26
2016-06-20T00:59:48.994Z,1018.23
2016-06-20T01:00:48.982Z,1018.26
2016-06-20T01:01:48.954Z,1018.19
2016-06-20T01:02:48.957Z,1018.2
2016-06-20T01:03:48.945Z,1018.3
2016-06-20T01:04:48.917Z,1018.18
2016-06-20T01:05:48.906Z,1018.2
2016-06-20T01:06:48.893Z,1018.21
2016-06-20T01:07:48.881Z,1018.2
2016-06-20T01:08:48.869Z,1018.17
2016-06-20T01:09:48.856Z,1018.15
2016-06-20T01:10:48.844Z,1018.19
2016-06-20T01:11:48.833Z,1018.17
2016-06-20T01:12:48.820Z,1018.17
2016-06-20T01:13:48.808Z,1018.18
2016-06-20T01:14:48.796Z,1018.15
2016-06-20T01:15:48.784Z,1018.11
2016-06-20T01:16:48.772Z,1018.08
2016-06-20T01:17:48.759Z,1018.08
2016-06-20T01:18:48.731Z,1018.08
2016-06-20T01:19:48.735Z,1018.08
2016-06-20T01:20:48.708Z,1018.09
2016-06-20T01:21:48.695Z,1018.03
2016-06-20T01:22:48.682Z,1018.06
2016-06-20T01:23:48.671Z,1018.04
2016-06-20T01:24:48.659Z,1018.04
2016-06-20T01:25:48.646Z,1018.07
2016-06-20T01:26:48.634Z,1018.09
2016-06-20T01:27:48.622Z,1018.07
2016-06-20T01:28:48.611Z,1018.03
2016-06-20T01:29:48.598Z,1018.02
2016-06-20T01:30:48.585Z,1018.04
2016-06-20T01:31:48.558Z,1018.04
2016-06-20T01:32:48.546Z,1017.99
2016-06-20T01:33:48.549Z,1018
2016-06-20T01:34:48.521Z,1018.01
2016-06-20T01:35:48.524Z,1017.98
2016-06-20T01:36:48.497Z,1018.02
2016-06-20T01:37:48.485Z,1017.98
2016-06-20T01:38:48.488Z,1017.99
2016-06-20T01:39:48.461Z,1017.96
2016-06-20T01:40:48.448Z,1017.98
2016-06-20T01:41:48.436Z,1018
2016-06-20T01:42:48.424Z,1017.97
2016-06-20T01:43:48.412Z,1018.01
2016-06-20T01:44:48.400Z,1017.98
2016-06-20T01:45:48.387Z,1017.97
2016-06-20T01:46:48.375Z,1017.98
2016-06-20T01:47:48.363Z,1017.95
2016-06-20T01:48:48.335Z,1017.96
2016-06-20T01:49:48.339Z,1017.93
2016-06-20T01:50:48.326Z,1017.94
2016-06-20T01:51:48.315Z,1017.87
2016-06-20T01:52:48.302Z,1017.86
2016-06-20T01:53:48.275Z,1017.83
2016-06-20T01:54:48.263Z,1017.86
2016-06-20T01:55:48.250Z,1017.78
2016-06-20T01:56:48.238Z,1017.78
2016-06-20T01:57:48.226Z,1017.79
2016-06-20T01:58:48.214Z,1017.79
2016-06-20T01:59:48.202Z,1017.79
2016-06-20T02:00:48.189Z,1017.72
2016-06-20T02:01:48.177Z,1017.72
2016-06-20T02:02:48.165Z,1017.7
2016-06-20T02:03:48.152Z,1017.69
2016-06-20T02:04:48.140Z,1017.75
2016-06-20T02:05:48.128Z,1017.73
2016-06-20T02:06:48.101Z,1017.74
2016-06-20T02:07:48.104Z,1017.76
2016-06-20T02:08:48.092Z,1017.78
2016-06-20T02:09:48.080Z,1017.81
2016-06-20T02:10:48.052Z,1017.82
2016-06-20T02:11:48.040Z,1017.88
2016-06-20T02:12:48.028Z,1017.85
2016-06-20T02:13:48.016Z,1017.8
2016-06-20T02:14:48.004Z,1017.81
2016-06-20T02:15:47.991Z,1017.77
2016-06-20T02:16:47.979Z,1017.76
2016-06-20T02:17:47.967Z,1017.78
2016-06-20T02:18:47.954Z,1017.8
2016-06-20T02:19:47.942Z,1017.82
2016-06-20T02:20:47.915Z,1017.82
2016-06-20T02:21:47.902Z,1017.8
2016-06-20T02:22:47.890Z,1017.83
2016-06-20T02:23:47.879Z,1017.77
2016-06-20T02:24:47.866Z,1017.78
2016-06-20T02:25:47.853Z,1017.81
2016-06-20T02:26:47.842Z,1017.76
2016-06-20T02:27:47.829Z,1017.74
2016-06-20T02:28:47.818Z,1017.73
2016-06-20T02:29:47.806Z,1017.69
2016-06-20T02:30:47.793Z,1017.65
2016-06-20T02:31:47.781Z,1017.67
2016-06-20T02:32:47.769Z,1017.67
2016-06-20T02:33:47.741Z,1017.66
2016-06-20T02:34:47.728Z,1017.66
2016-06-20T02:35:47.717Z,1017.67
2016-06-20T02:36:47.720Z,1017.64
2016-06-20T02:37:47.692Z,1017.67
2016-06-20T02:38:47.680Z,1017.64
2016-06-20T02:39:47.667Z,1017.61
2016-06-20T02:40:47.655Z,1017.6
2016-06-20T02:41:47.644Z,1017.56
2016-06-20T02:42:47.631Z,1017.58
2016-06-20T02:43:47.620Z,1017.57
2016-06-20T02:44:47.607Z,1017.56
2016-06-20T02:45:47.595Z,1017.54
2016-06-20T02:46:47.567Z,1017.5
2016-06-20T02:47:47.570Z,1017.53
2016-06-20T02:48:47.558Z,1017.52
2016-06-20T02:49:47.547Z,1017.54
2016-06-20T02:50:47.533Z,1017.51
2016-06-20T02:51:47.506Z,1017.53
2016-06-20T02:52:47.494Z,1017.48
2016-06-20T02:53:47.482Z,1017.52
2016-06-20T02:54:47.469Z,1017.51
2016-06-20T02:55:47.457Z,1017.52
2016-06-20T02:56:47.450Z,1017.49
2016-06-20T02:57:47.446Z,1017.5
2016-06-20T02:58:47.443Z,1017.49
2016-06-20T02:59:47.439Z,1017.46
2016-06-20T03:00:47.434Z,1017.46
2016-06-20T03:01:47.413Z,1017.46
2016-06-20T03:02:47.403Z,1017.45
2016-06-20T03:03:47.395Z,1017.4
2016-06-20T03:04:47.386Z,1017.43
2016-06-20T03:05:47.377Z,1017.41
2016-06-20T03:06:47.367Z,1017.44
2016-06-20T03:07:47.355Z,1017.42
2016-06-20T03:08:47.344Z,1017.42
2016-06-20T03:09:47.333Z,1017.43
2016-06-20T03:10:47.322Z,1017.44
2016-06-20T03:11:47.311Z,1017.42
2016-06-20T03:12:47.298Z,1017.38
2016-06-20T03:13:47.288Z,1017.39
2016-06-20T03:14:47.260Z,1017.37
2016-06-20T03:15:47.263Z,1017.37
2016-06-20T03:16:47.236Z,1017.41
2016-06-20T03:17:47.224Z,1017.38
2016-06-20T03:18:47.213Z,1017.36
2016-06-20T03:19:47.200Z,1017.35
2016-06-20T03:20:47.190Z,1017.36
2016-06-20T03:21:47.177Z,1017.37
2016-06-20T03:22:47.165Z,1017.33
2016-06-20T03:23:47.153Z,1017.35
2016-06-20T03:24:47.141Z,1017.32
2016-06-20T03:25:47.128Z,1017.29
2016-06-20T03:26:47.117Z,1017.3
2016-06-20T03:27:47.104Z,1017.31
2016-06-20T03:28:47.076Z,1017.29
2016-06-20T03:29:47.064Z,1017.28
2016-06-20T03:30:47.052Z,1017.3
2016-06-20T03:31:47.039Z,1017.29
2016-06-20T03:32:47.027Z,1017.32
2016-06-20T03:33:47.016Z,1017.31
2016-06-20T03:34:47.003Z,1017.29
2016-06-20T03:35:46.991Z,1017.22
2016-06-20T03:36:46.979Z,1017.26
2016-06-20T03:37:46.966Z,1017.21
2016-06-20T03:38:46.939Z,1017.2
2016-06-20T03:39:46.943Z,1017.2
2016-06-20T03:40:46.915Z,1017.2
2016-06-20T03:41:46.903Z,1017.16
2016-06-20T03:42:46.891Z,1017.17
2016-06-20T03:43:46.878Z,1017.16
2016-06-20T03:44:46.866Z,1017.14
2016-06-20T03:45:46.855Z,1017.09
2016-06-20T03:46:46.841Z,1017.09
2016-06-20T03:47:46.829Z,1017.04
2016-06-20T03:48:46.817Z,1017.04
2016-06-20T03:49:46.805Z,1017.06
2016-06-20T03:50:46.793Z,1016.99
2016-06-20T03:51:46.765Z,1016.99
2016-06-20T03:52:46.753Z,1016.99
2016-06-20T03:53:46.757Z,1016.96
2016-06-20T03:54:46.728Z,1016.97
2016-06-20T03:55:46.717Z,1016.96
2016-06-20T03:56:46.704Z,1016.96
2016-06-20T03:57:46.693Z,1016.93
2016-06-20T03:58:46.680Z,1016.98
2016-06-20T03:59:46.668Z,1016.95
2016-06-20T04:00:46.656Z,1016.94
2016-06-20T04:01:46.643Z,1016.93
2016-06-20T04:02:46.631Z,1016.93
2016-06-20T04:03:46.619Z,1016.9
2016-06-20T04:04:46.607Z,1016.92
2016-06-20T04:05:46.595Z,1016.93
2016-06-20T04:06:46.582Z,1016.94
2016-06-20T04:07:46.555Z,1016.93
2016-06-20T04:08:46.543Z,1016.91
2016-06-20T04:09:46.530Z,1016.93
2016-06-20T04:10:46.519Z,1016.93
2016-06-20T04:11:46.506Z,1016.93
2016-06-20T04:12:46.494Z,1016.91
2016-06-20T04:13:46.482Z,1016.91
2016-06-20T04:14:46.470Z,1016.94
2016-06-20T04:15:46.458Z,1016.95
2016-06-20T04:16:46.430Z,1016.96
2016-06-20T04:17:46.433Z,1016.97
2016-06-20T04:18:46.405Z,1016.97
2016-06-20T04:19:46.394Z,1016.99
2016-06-20T04:20:46.382Z,1017
2016-06-20T04:21:46.368Z,1017.02
2016-06-20T04:22:46.357Z,1017.01
2016-06-20T04:23:46.344Z,1017.03
2016-06-20T04:24:46.332Z,1017.02
2016-06-20T04:25:46.320Z,1017.03
2016-06-20T04:26:46.308Z,1017.02
2016-06-20T04:27:46.296Z,1017.03
2016-06-20T04:28:46.284Z,1017.02
2016-06-20T04:29:46.271Z,1017.03
2016-06-20T04:30:46.244Z,1017.04
2016-06-20T04:31:46.248Z,1017.07
2016-06-20T04:32:46.220Z,1017.08
2016-06-20T04:33:46.207Z,1017.07
2016-06-20T04:34:46.195Z,1017.05
2016-06-20T04:35:46.183Z,1017.08
2016-06-20T04:36:46.170Z,1017.1
2016-06-20T04:37:46.159Z,1017.09
2016-06-20T04:38:46.146Z,1017.08
2016-06-20T04:39:46.134Z,1017.13
2016-06-20T04:40:46.122Z,1017.15
2016-06-20T04:41:46.095Z,1017.1
2016-06-20T04:42:46.098Z,1017.13
2016-06-20T04:43:46.086Z,1017.2
2016-06-20T04:44:46.058Z,1017.15
2016-06-20T04:45:46.046Z,1017.18
2016-06-20T04:46:46.033Z,1017.17
2016-06-20T04:47:46.022Z,1017.17
2016-06-20T04:48:46.009Z,1017.16
2016-06-20T04:49:45.997Z,1017.21
2016-06-20T04:50:45.985Z,1017.2
2016-06-20T04:51:45.973Z,1017.19
2016-06-20T04:52:45.960Z,1017.21
2016-06-20T04:53:45.932Z,1017.2
2016-06-20T04:54:45.936Z,1017.17
2016-06-20T04:55:45.908Z,1017.21
2016-06-20T04:56:45.896Z,1017.21
2016-06-20T04:57:45.884Z,1017.18
2016-06-20T04:58:45.871Z,1017.19
2016-06-20T04:59:45.860Z,1017.17
2016-06-20T05:00:45.848Z,1017.16
2016-06-20T05:01:45.835Z,1017.19
2016-06-20T05:02:45.824Z,1017.17
2016-06-20T05:03:45.811Z,1017.18
2016-06-20T05:04:45.799Z,1017.15
2016-06-20T05:05:45.787Z,1017.18
2016-06-20T05:06:45.775Z,1017.18
2016-06-20T05:07:45.763Z,1017.15
2016-06-20T05:08:45.734Z,1017.08
2016-06-20T05:09:45.723Z,1017.13
2016-06-20T05:10:45.710Z,1017.16
2016-06-20T05:11:45.698Z,1017.15
2016-06-20T05:12:45.686Z,1017.17
2016-06-20T05:13:45.673Z,1017.18
2016-06-20T05:14:45.662Z,1017.17
2016-06-20T05:15:45.649Z,1017.19
2016-06-20T05:16:45.637Z,1017.2
2016-06-20T05:17:45.610Z,1017.23
2016-06-20T05:18:45.613Z,1017.21
2016-06-20T05:19:45.601Z,1017.22
2016-06-20T05:20:45.573Z,1017.24
2016-06-20T05:21:45.561Z,1017.24
2016-06-20T05:22:45.548Z,1017.25
2016-06-20T05:23:45.536Z,1017.27
2016-06-20T05:24:45.539Z,1017.23
2016-06-20T05:25:45.512Z,1017.27
2016-06-20T05:26:45.500Z,1017.27
2016-06-20T05:27:45.488Z,1017.26
2016-06-20T05:28:45.475Z,1017.31
2016-06-20T05:29:45.448Z,1017.3
2016-06-20T05:30:45.435Z,1017.31
2016-06-20T05:31:45.424Z,1017.3
2016-06-20T05:32:45.411Z,1017.27
2016-06-20T05:33:45.414Z,1017.29
2016-06-20T05:34:45.387Z,1017.3
2016-06-20T05:35:45.375Z,1017.32
2016-06-20T05:36:45.363Z,1017.27
2016-06-20T05:37:45.351Z,1017.31
2016-06-20T05:38:45.338Z,1017.29
2016-06-20T05:39:45.326Z,1017.29
2016-06-20T05:40:45.314Z,1017.32
2016-06-20T05:41:45.302Z,1017.29
2016-06-20T05:42:45.290Z,1017.29
2016-06-20T05:43:45.262Z,1017.3
2016-06-20T05:44:45.265Z,1017.33
2016-06-20T05:45:45.253Z,1017.34
2016-06-20T05:46:45.226Z,1017.35
2016-06-20T05:47:45.213Z,1017.39
2016-06-20T05:48:45.201Z,1017.37
2016-06-20T05:49:45.189Z,1017.4
2016-06-20T05:50:45.176Z,1017.39
2016-06-20T05:51:45.165Z,1017.38
2016-06-20T05:52:45.152Z,1017.35
2016-06-20T05:53:45.140Z,1017.34
2016-06-20T05:54:45.128Z,1017.39
2016-06-20T05:55:45.101Z,1017.33
2016-06-20T05:56:45.088Z,1017.35
2016-06-20T05:57:45.075Z,1017.35
2016-06-20T05:58:45.064Z,1017.32
2016-06-20T05:59:45.051Z,1017.36
2016-06-20T06:00:45.039Z,1017.34
2016-06-20T06:01:45.028Z,1017.32
2016-06-20T06:02:45.015Z,1017.34
2016-06-20T06:03:45.003Z,1017.32
2016-06-20T06:04:44.975Z,1017.32
2016-06-20T06:05:44.963Z,1017.3
2016-06-20T06:06:44.951Z,1017.34
2016-06-20T06:07:44.954Z,1017.33
2016-06-20T06:08:44.942Z,1017.34
2016-06-20T06:09:44.914Z,1017.35
2016-06-20T06:10:44.902Z,1017.37
2016-06-20T06:11:44.890Z,1017.33
2016-06-20T06:12:44.877Z,1017.35
2016-06-20T06:13:44.866Z,1017.33
2016-06-20T06:14:44.853Z,1017.36
2016-06-20T06:15:44.841Z,1017.37
2016-06-20T06:16:44.830Z,1017.37
2016-06-20T06:17:44.816Z,1017.33
2016-06-20T06:18:44.790Z,1017.33
2016-06-20T06:19:44.777Z,1017.34
2016-06-20T06:21:44.753Z,1017.36
2016-06-20T06:22:44.740Z,1017.33
2016-06-20T06:23:44.729Z,1017.34
2016-06-20T06:24:44.716Z,1017.32
2016-06-20T06:25:44.704Z,1017.34
2016-06-20T06:26:44.692Z,1017.36
2016-06-20T06:27:44.680Z,1017.34
2016-06-20T06:28:53.761Z,1017.31
2016-06-20T06:29:44.639Z,1017.34
2016-06-20T06:30:44.628Z,1017.36
2016-06-20T06:31:44.615Z,1017.37
2016-06-20T06:32:44.604Z,1017.36
2016-06-20T06:33:44.607Z,1017.34
2016-06-20T06:34:44.578Z,1017.37
2016-06-20T06:35:44.567Z,1017.36
2016-06-20T06:36:44.554Z,1017.37
2016-06-20T06:37:44.542Z,1017.4
2016-06-20T06:38:44.530Z,1017.43
2016-06-20T06:39:44.518Z,1017.46
2016-06-20T06:40:44.506Z,1017.44
2016-06-20T06:41:44.493Z,1017.45
2016-06-20T06:42:44.481Z,1017.47
2016-06-20T06:43:44.469Z,1017.46
2016-06-20T06:44:44.442Z,1017.49
2016-06-20T06:45:44.445Z,1017.48
2016-06-20T06:46:44.433Z,1017.52
2016-06-20T06:47:44.406Z,1017.52
2016-06-20T06:48:44.393Z,1017.53
2016-06-20T06:49:44.381Z,1017.53
2016-06-20T06:50:44.369Z,1017.56
2016-06-20T06:51:44.357Z,1017.49
2016-06-20T06:52:44.344Z,1017.53
2016-06-20T06:53:44.332Z,1017.51
2016-06-20T06:54:44.320Z,1017.48
2016-06-20T06:55:44.308Z,1017.46
2016-06-20T06:56:44.296Z,1017.46
2016-06-20T06:57:44.268Z,1017.47
2016-06-20T06:58:44.256Z,1017.48
2016-06-20T06:59:44.259Z,1017.49
2016-06-20T07:00:44.232Z,1017.46
2016-06-20T07:01:44.220Z,1017.53
2016-06-20T07:02:44.207Z,1017.52
2016-06-20T07:03:44.195Z,1017.48
2016-06-20T07:04:44.183Z,1017.5
2016-06-20T07:05:44.171Z,1017.5
2016-06-20T07:06:44.158Z,1017.49
2016-06-20T07:07:44.146Z,1017.48
2016-06-20T07:08:44.135Z,1017.49
2016-06-20T07:09:44.122Z,1017.46
2016-06-20T07:10:44.110Z,1017.47
2016-06-20T07:11:44.098Z,1017.48
2016-06-20T07:12:44.085Z,1017.47
2016-06-20T07:13:44.058Z,1017.47
2016-06-20T07:14:44.061Z,1017.48
2016-06-20T07:15:44.033Z,1017.47
2016-06-20T07:16:44.021Z,1017.47
2016-06-20T07:17:44.025Z,1017.51
2016-06-20T07:18:43.997Z,1017.52
2016-06-20T07:19:43.984Z,1017.52
2016-06-20T07:20:43.973Z,1017.54
2016-06-20T07:21:43.960Z,1017.5
2016-06-20T07:22:43.948Z,1017.57
2016-06-20T07:23:43.937Z,1017.53
2016-06-20T07:24:43.923Z,1017.5
2016-06-20T07:25:43.912Z,1017.52
2016-06-20T07:26:43.899Z,1017.56
2016-06-20T07:27:43.887Z,1017.51
2016-06-20T07:28:43.876Z,1017.54
2016-06-20T07:29:43.853Z,1017.53
2016-06-20T07:30:43.849Z,1017.53
2016-06-20T07:31:43.860Z,1017.51
2016-06-20T07:32:43.855Z,1017.53
2016-06-20T07:33:43.834Z,1017.57
2016-06-20T07:34:43.825Z,1017.57
2016-06-20T07:35:43.816Z,1017.57
2016-06-20T07:36:43.821Z,1017.61
2016-06-20T07:37:43.795Z,1017.63
2016-06-20T07:38:43.786Z,1017.59
2016-06-20T07:39:43.791Z,1017.55
2016-06-20T07:40:43.765Z,1017.56
2016-06-20T07:41:43.753Z,1017.53
2016-06-20T07:42:43.741Z,1017.56
2016-06-20T07:43:43.731Z,1017.55
2016-06-20T07:44:43.719Z,1017.56
2016-06-20T07:45:43.707Z,1017.54
2016-06-20T07:46:43.695Z,1017.5
2016-06-20T07:47:43.684Z,1017.49
2016-06-20T07:48:43.672Z,1017.46
2016-06-20T07:49:43.660Z,1017.44
2016-06-20T07:50:43.648Z,1017.46
2016-06-20T07:51:43.619Z,1017.48
2016-06-20T07:52:43.624Z,1017.45
2016-06-20T07:53:43.595Z,1017.47
2016-06-20T07:54:43.599Z,1017.45
2016-06-20T07:55:43.587Z,1017.41
2016-06-20T07:56:43.575Z,1017.41
2016-06-20T07:57:43.563Z,1017.46
2016-06-20T07:58:43.550Z,1017.44
2016-06-20T07:59:43.539Z,1017.42
2016-06-20T08:00:43.526Z,1017.43
2016-06-20T08:01:43.498Z,1017.45
2016-06-20T08:02:43.486Z,1017.45
2016-06-20T08:03:43.489Z,1017.46
2016-06-20T08:04:43.462Z,1017.47
2016-06-20T08:05:43.450Z,1017.43
2016-06-20T08:06:43.438Z,1017.44
2016-06-20T08:07:43.425Z,1017.41
2016-06-20T08:08:43.429Z,1017.44
2016-06-20T08:09:43.401Z,1017.42
2016-06-20T08:10:43.405Z,1017.43
2016-06-20T08:11:43.377Z,1017.39
2016-06-20T08:12:43.364Z,1017.41
2016-06-20T08:13:43.368Z,1017.41
2016-06-20T08:14:43.340Z,1017.42
2016-06-20T08:15:43.328Z,1017.43
2016-06-20T08:16:43.316Z,1017.44
2016-06-20T08:17:43.304Z,1017.44
2016-06-20T08:18:43.291Z,1017.44
2016-06-20T08:19:43.280Z,1017.46
2016-06-20T08:20:43.267Z,1017.44
2016-06-20T08:21:43.254Z,1017.42
2016-06-20T08:22:43.243Z,1017.41
2016-06-20T08:23:43.230Z,1017.43
2016-06-20T08:24:43.218Z,1017.4
2016-06-20T08:25:43.206Z,1017.41
2016-06-20T08:26:43.194Z,1017.35
2016-06-20T08:27:43.182Z,1017.37
2016-06-20T08:28:43.169Z,1017.4
2016-06-20T08:29:43.173Z,1017.39
2016-06-20T08:30:43.146Z,1017.38
2016-06-20T08:31:43.133Z,1017.36
2016-06-20T08:32:43.120Z,1017.36
2016-06-20T08:33:43.110Z,1017.37
2016-06-20T08:34:43.097Z,1017.35
2016-06-20T08:35:43.085Z,1017.37
2016-06-20T08:36:43.072Z,1017.34
2016-06-20T08:37:43.060Z,1017.32
2016-06-20T08:38:43.048Z,1017.3
2016-06-20T08:39:43.036Z,1017.33
2016-06-20T08:40:43.040Z,1017.3
2016-06-20T08:41:43.026Z,1017.33
2016-06-20T08:42:42.999Z,1017.29
2016-06-20T08:43:42.988Z,1017.33
2016-06-20T08:44:42.975Z,1017.3
2016-06-20T08:45:42.979Z,1017.32
2016-06-20T08:46:42.951Z,1017.33
2016-06-20T08:47:42.938Z,1017.32
2016-06-20T08:48:42.926Z,1017.33
2016-06-20T08:49:42.915Z,1017.32
2016-06-20T08:50:42.902Z,1017.33
2016-06-20T08:51:42.891Z,1017.35
2016-06-20T08:52:42.894Z,1017.35
2016-06-20T08:53:42.881Z,1017.32
2016-06-20T08:54:42.869Z,1017.3
2016-06-20T08:55:42.858Z,1017.34
2016-06-20T08:56:42.845Z,1017.3
2016-06-20T08:57:42.817Z,1017.31
2016-06-20T08:58:42.821Z,1017.32
2016-06-20T08:59:42.808Z,1017.34
2016-06-20T09:00:42.796Z,1017.34
2016-06-20T09:01:42.784Z,1017.32
2016-06-20T09:02:42.772Z,1017.35
2016-06-20T09:03:42.760Z,1017.35
2016-06-20T09:04:42.748Z,1017.39
2016-06-20T09:05:42.734Z,1017.36
2016-06-20T09:06:42.724Z,1017.35
2016-06-20T09:07:42.727Z,1017.4
2016-06-20T09:08:42.714Z,1017.36
2016-06-20T09:09:42.703Z,1017.39
2016-06-20T09:10:42.675Z,1017.36
2016-06-20T09:11:42.663Z,1017.35
2016-06-20T09:12:42.667Z,1017.35
2016-06-20T09:13:42.653Z,1017.34
2016-06-20T09:14:42.626Z,1017.33
2016-06-20T09:15:42.630Z,1017.31
2016-06-20T09:16:42.617Z,1017.33
2016-06-20T09:17:42.605Z,1017.33
2016-06-20T09:18:42.593Z,1017.34
2016-06-20T09:19:42.580Z,1017.36
2016-06-20T09:20:42.569Z,1017.32
2016-06-20T09:21:42.556Z,1017.31
2016-06-20T09:22:42.544Z,1017.36
2016-06-20T09:23:42.547Z,1017.33
2016-06-20T09:24:42.519Z,1017.34
2016-06-20T09:25:42.508Z,1017.34
2016-06-20T09:26:42.512Z,1017.33
2016-06-20T09:27:42.499Z,1017.33
2016-06-20T09:28:42.486Z,1017.34
2016-06-20T09:29:42.475Z,1017.29
2016-06-20T09:30:42.462Z,1017.31
2016-06-20T09:31:42.466Z,1017.28
2016-06-20T09:32:42.439Z,1017.3
2016-06-20T09:33:42.423Z,1017.27
2016-06-20T09:34:42.410Z,1017.3
2016-06-20T09:35:42.398Z,1017.26
2016-06-20T09:36:42.386Z,1017.25
2016-06-20T09:37:42.374Z,1017.3
2016-06-20T09:38:42.361Z,1017.28
2016-06-20T09:39:42.349Z,1017.26
2016-06-20T09:40:42.352Z,1017.28
2016-06-20T09:41:42.341Z,1017.26
2016-06-20T09:42:42.328Z,1017.28
2016-06-20T09:43:42.317Z,1017.27
2016-06-20T09:44:42.305Z,1017.28
2016-06-20T09:45:42.292Z,1017.3
2016-06-20T09:46:42.281Z,1017.27
2016-06-20T09:47:42.268Z,1017.24
2016-06-20T09:48:42.272Z,1017.26
2016-06-20T09:49:42.244Z,1017.26
2016-06-20T09:50:42.231Z,1017.3
2016-06-20T09:51:42.234Z,1017.27
2016-06-20T09:52:42.223Z,1017.28
2016-06-20T09:53:42.210Z,1017.23
2016-06-20T09:54:42.198Z,1017.26
2016-06-20T09:55:42.186Z,1017.24
2016-06-20T09:56:42.190Z,1017.24
2016-06-20T09:57:42.177Z,1017.25
2016-06-20T09:58:42.150Z,1017.26
2016-06-20T09:59:42.153Z,1017.3
2016-06-20T10:00:42.126Z,1017.28
2016-06-20T10:01:42.129Z,1017.24
2016-06-20T10:02:42.116Z,1017.3
2016-06-20T10:03:42.104Z,1017.33
2016-06-20T10:04:42.107Z,1017.29
2016-06-20T10:05:42.080Z,1017.29
2016-06-20T10:06:42.084Z,1017.29
2016-06-20T10:07:42.071Z,1017.24
2016-06-20T10:09:42.047Z,1017.25
2016-06-20T10:10:42.036Z,1017.24
2016-06-20T10:11:42.023Z,1017.24
2016-06-20T10:12:42.011Z,1017.24
2016-06-20T10:13:42.014Z,1017.26
2016-06-20T10:14:41.986Z,1017.32
2016-06-20T10:15:41.989Z,1017.29
2016-06-20T10:16:41.978Z,1017.3
2016-06-20T10:17:41.966Z,1017.27
2016-06-20T10:18:41.953Z,1017.29
2016-06-20T10:19:41.957Z,1017.25
2016-06-20T10:20:41.929Z,1017.25
2016-06-20T10:21:41.932Z,1017.25
2016-06-20T10:22:41.920Z,1017.25
2016-06-20T10:23:41.909Z,1017.29
2016-06-20T10:24:41.912Z,1017.3
2016-06-20T10:25:41.899Z,1017.29
2016-06-20T10:26:41.872Z,1017.33
2016-06-20T10:27:41.875Z,1017.31
2016-06-20T10:28:41.862Z,1017.3
2016-06-20T10:29:41.851Z,1017.28
2016-06-20T10:30:41.839Z,1017.3
2016-06-20T10:31:41.842Z,1017.28
2016-06-20T10:32:41.830Z,1017.29
2016-06-20T10:33:41.818Z,1017.24
2016-06-20T10:34:41.822Z,1017.25
2016-06-20T10:35:41.793Z,1017.3
2016-06-20T10:36:41.782Z,1017.29
2016-06-20T10:37:41.785Z,1017.28
2016-06-20T10:38:41.772Z,1017.31
2016-06-20T10:39:41.761Z,1017.28
2016-06-20T10:40:41.748Z,1017.29
2016-06-20T10:41:41.751Z,1017.31
2016-06-20T10:42:41.739Z,1017.29
2016-06-20T10:43:41.728Z,1017.3
2016-06-20T10:44:41.715Z,1017.26
2016-06-20T10:45:41.702Z,1017.24
2016-06-20T10:46:41.691Z,1017.3
2016-06-20T10:47:41.695Z,1017.27
2016-06-20T10:48:41.682Z,1017.28
2016-06-20T10:49:41.717Z,1017.27
2016-06-20T10:50:41.705Z,1017.25
2016-06-20T10:51:41.678Z,1017.28
2016-06-20T10:52:41.649Z,1017.22
2016-06-20T10:53:41.637Z,1017.27
2016-06-20T10:54:41.625Z,1017.24
2016-06-20T10:55:41.628Z,1017.24
2016-06-20T10:56:41.616Z,1017.22
2016-06-20T10:57:41.604Z,1017.25
2016-06-20T10:58:41.592Z,1017.23
2016-06-20T10:59:41.580Z,1017.24
2016-06-20T11:00:41.583Z,1017.19
2016-06-20T11:01:41.571Z,1017.21
2016-06-20T11:02:41.606Z,1017.17
2016-06-20T11:04:41.550Z,1017.13
2016-06-20T11:05:41.538Z,1017.1
2016-06-20T11:06:41.525Z,1017.08
2016-06-20T11:07:41.529Z,1017.09
2016-06-20T11:08:41.548Z,1017.08
2016-06-20T11:09:41.520Z,1017.06
2016-06-20T11:10:41.493Z,1017.04
2016-06-20T11:11:41.497Z,1017.02
2016-06-20T11:12:41.484Z,1017.02
2016-06-20T11:13:41.471Z,1017.07
2016-06-20T11:14:41.460Z,1017.01
2016-06-20T11:15:41.463Z,1017.03
2016-06-20T11:16:41.451Z,1016.94
2016-06-20T11:17:41.455Z,1016.98
2016-06-20T11:18:41.442Z,1016.94
2016-06-20T11:19:41.430Z,1016.92
2016-06-20T11:20:41.434Z,1016.87
2016-06-20T11:21:41.421Z,1016.89
2016-06-20T11:22:41.769Z,1016.87
2016-06-20T11:23:41.397Z,1016.88
2016-06-20T11:24:41.385Z,1016.86
2016-06-20T11:25:41.388Z,1016.86
2016-06-20T11:26:41.377Z,1016.89
2016-06-20T11:27:41.364Z,1016.84
2016-06-20T11:28:41.367Z,1016.84
2016-06-20T11:29:41.355Z,1016.84
2016-06-20T11:30:41.343Z,1016.85
2016-06-20T11:31:41.347Z,1016.78
2016-06-20T11:32:41.553Z,1016.8
2016-06-20T11:33:41.322Z,1016.8
2016-06-20T11:34:41.372Z,1016.85
2016-06-20T11:35:41.344Z,1016.88
2016-06-20T11:36:41.411Z,1016.82
2016-06-20T11:37:41.305Z,1016.79
2016-06-20T11:38:41.308Z,1016.74
2016-06-20T11:39:41.296Z,1016.72
2016-06-20T11:40:41.284Z,1016.78
2016-06-20T11:41:41.271Z,1016.83
2016-06-20T11:42:41.275Z,1016.91
2016-06-20T11:43:41.279Z,1016.88
2016-06-20T11:44:41.267Z,1016.94
2016-06-20T11:45:41.285Z,1016.84
2016-06-20T11:46:41.539Z,1016.88
2016-06-20T11:47:41.261Z,1016.85
2016-06-20T11:48:41.265Z,1016.79
2016-06-20T11:49:41.268Z,1016.82
2016-06-20T11:50:41.272Z,1016.8
2016-06-20T11:51:41.260Z,1016.83
2016-06-20T11:52:41.247Z,1016.84
2016-06-20T11:53:41.250Z,1016.79
2016-06-20T11:54:41.254Z,1016.77
2016-06-20T11:55:41.258Z,1016.76
2016-06-20T11:56:41.261Z,1016.77
2016-06-20T11:57:41.421Z,1016.74
2016-06-20T11:58:41.268Z,1016.71
2016-06-20T12:11:24.670Z,1016.71
2016-06-20T12:11:29.513Z,1016.58
2016-06-20T12:12:27.628Z,1016.54
2016-06-20T12:13:28.318Z,1016.51
2016-06-20T12:14:27.666Z,1016.54
2016-06-20T12:15:27.654Z,1016.51
2016-06-20T12:16:27.657Z,1016.5
2016-06-20T12:17:27.708Z,1016.53
2016-06-20T12:18:27.664Z,1016.54
2016-06-20T12:19:27.668Z,1016.53
2016-06-20T12:20:27.672Z,1016.53
2016-06-20T12:21:27.676Z,1016.5
2016-06-20T12:22:27.695Z,1016.51